createdAt,value
2022-09-21T00:01:34.460Z,26.70
2022-09-21T00:04:04.437Z,26.70
2022-09-21T00:06:34.619Z,26.70
2022-09-21T00:09:03.380Z,26.60
2022-09-21T00:11:33.680Z,26.60
2022-09-21T00:14:14.108Z,26.60
2022-09-21T00:16:43.674Z,26.60
2022-09-21T00:19:12.453Z,26.60
2022-09-21T00:21:40.831Z,26.60
2022-09-21T00:24:09.505Z,26.50
2022-09-21T00:26:37.679Z,26.50
2022-09-21T00:29:06.487Z,26.50
2022-09-21T00:31:35.018Z,26.50
2022-09-21T00:34:03.634Z,26.60
2022-09-21T00:36:31.902Z,26.50
2022-09-21T00:39:01.796Z,26.50
2022-09-21T00:41:32.594Z,26.50
2022-09-21T00:44:23.986Z,26.50
2022-09-21T00:46:56.345Z,26.60
2022-09-21T00:49:25.967Z,26.60
2022-09-21T00:51:54.561Z,26.50
2022-09-21T00:54:28.568Z,26.60
2022-09-21T00:56:58.366Z,26.50
2022-09-21T00:59:30.102Z,26.50
2022-09-21T01:01:59.101Z,26.50
2022-09-21T01:04:28.560Z,26.50
2022-09-21T01:06:58.911Z,26.50
2022-09-21T01:09:28.785Z,26.50
2022-09-21T01:12:21.322Z,26.50
2022-09-21T01:15:04.581Z,26.50
2022-09-21T01:17:51.450Z,26.50
2022-09-21T01:20:46.312Z,26.50
2022-09-21T01:23:17.315Z,26.50
2022-09-21T01:26:00.345Z,26.50
2022-09-21T01:28:46.736Z,26.50
2022-09-21T01:31:22.647Z,26.50
2022-09-21T01:33:56.811Z,26.50
2022-09-21T01:36:29.109Z,26.50
2022-09-21T01:39:03.807Z,26.50
2022-09-21T01:41:33.397Z,26.50
2022-09-21T01:44:08.019Z,26.50
2022-09-21T01:46:38.179Z,26.50
2022-09-21T01:49:14.254Z,26.40
2022-09-21T01:51:48.974Z,26.50
2022-09-21T01:54:26.493Z,26.50
2022-09-21T01:57:15.464Z,26.50
2022-09-21T01:59:51.544Z,26.50
2022-09-21T02:02:26.295Z,26.50
2022-09-21T02:04:54.978Z,26.40
2022-09-21T02:07:23.479Z,26.30
2022-09-21T02:09:52.503Z,26.20
2022-09-21T02:12:20.770Z,26.20
2022-09-21T02:14:53.517Z,26.20
2022-09-21T02:17:34.397Z,26.20
2022-09-21T02:20:11.711Z,26.20
2022-09-21T02:23:07.869Z,26.20
2022-09-21T02:25:42.231Z,26.10
2022-09-21T02:28:21.170Z,26.10
2022-09-21T02:30:59.838Z,26.10
2022-09-21T02:33:50.139Z,26.00
2022-09-21T02:36:33.824Z,26.00
2022-09-21T02:39:18.905Z,26.00
2022-09-21T02:42:00.512Z,26.00
2022-09-21T02:44:37.325Z,26.00
2022-09-21T02:47:39.064Z,26.10
2022-09-21T02:50:31.447Z,26.10
2022-09-21T02:53:01.876Z,26.10
2022-09-21T02:55:32.041Z,26.10
2022-09-21T02:58:04.482Z,26.10
2022-09-21T03:00:34.355Z,26.10
2022-09-21T03:03:19.033Z,26.10
2022-09-21T03:05:52.552Z,26.10
2022-09-21T03:08:21.627Z,26.10
2022-09-21T03:10:49.676Z,26.10
2022-09-21T03:13:18.483Z,26.10
2022-09-21T03:15:47.583Z,26.10
2022-09-21T03:18:15.922Z,26.10
2022-09-21T03:20:47.208Z,26.10
2022-09-21T03:23:15.759Z,26.10
2022-09-21T03:25:47.249Z,26.10
2022-09-21T03:28:16.411Z,26.20
2022-09-21T03:30:44.685Z,26.20
2022-09-21T03:33:13.253Z,26.20
2022-09-21T03:35:41.664Z,26.10
2022-09-21T03:38:09.988Z,26.20
2022-09-21T03:40:38.264Z,26.10
2022-09-21T03:43:06.367Z,26.10
2022-09-21T03:45:35.632Z,26.10
2022-09-21T03:48:04.092Z,26.10
2022-09-21T03:50:32.087Z,26.10
2022-09-21T03:53:00.433Z,26.10
2022-09-21T03:55:28.759Z,26.20
2022-09-21T03:57:57.101Z,26.20
2022-09-21T04:00:25.481Z,26.20
2022-09-21T04:02:53.794Z,26.20
2022-09-21T04:05:22.614Z,26.20
2022-09-21T04:07:50.714Z,26.30
2022-09-21T04:10:21.260Z,26.30
2022-09-21T04:12:49.788Z,26.30
2022-09-21T04:15:20.187Z,26.20
2022-09-21T04:17:51.230Z,26.30
2022-09-21T04:20:20.094Z,26.30
2022-09-21T04:22:48.422Z,26.20
2022-09-21T04:25:16.987Z,26.10
2022-09-21T04:27:45.103Z,25.70
2022-09-21T04:30:15.232Z,25.40
2022-09-21T04:32:43.798Z,25.00
2022-09-21T04:35:12.085Z,24.90
2022-09-21T04:37:40.221Z,24.80
2022-09-21T04:40:09.221Z,24.80
2022-09-21T04:42:37.318Z,24.80
2022-09-21T04:45:06.108Z,24.80
2022-09-21T04:47:34.246Z,24.80
2022-09-21T04:50:02.441Z,24.90
2022-09-21T04:52:30.595Z,24.90
2022-09-21T04:54:58.730Z,24.90
2022-09-21T04:57:27.095Z,25.00
2022-09-21T04:59:55.400Z,25.00
2022-09-21T05:02:23.587Z,25.00
2022-09-21T05:04:51.710Z,25.00
2022-09-21T05:07:19.959Z,25.00
2022-09-21T05:09:48.035Z,25.00
2022-09-21T05:12:22.120Z,25.10
2022-09-21T05:14:50.247Z,25.10
2022-09-21T05:17:18.544Z,25.10
2022-09-21T05:19:46.684Z,25.10
2022-09-21T05:22:14.695Z,25.10
2022-09-21T05:24:42.958Z,25.20
2022-09-21T05:27:10.991Z,25.20
2022-09-21T05:29:39.878Z,25.20
2022-09-21T05:32:17.003Z,25.30
2022-09-21T05:34:56.578Z,25.30
2022-09-21T05:37:56.851Z,25.30
2022-09-21T05:40:25.417Z,25.40
2022-09-21T05:42:53.921Z,25.40
2022-09-21T05:45:22.515Z,25.40
2022-09-21T05:48:11.730Z,25.50
2022-09-21T05:51:02.135Z,25.50
2022-09-21T05:53:37.567Z,25.50
2022-09-21T05:56:19.371Z,25.60
2022-09-21T05:59:12.083Z,25.60
2022-09-21T06:01:54.894Z,25.70
2022-09-21T06:04:23.453Z,25.70
2022-09-21T06:06:51.833Z,25.70
2022-09-21T06:09:19.906Z,25.70
2022-09-21T06:11:48.984Z,25.80
2022-09-21T06:14:17.142Z,25.70
2022-09-21T06:16:45.504Z,25.70
2022-09-21T06:19:14.419Z,25.60
2022-09-21T06:21:42.489Z,25.60
2022-09-21T06:24:11.056Z,25.60
2022-09-21T06:26:39.625Z,25.60
2022-09-21T06:29:07.767Z,25.70
2022-09-21T06:31:36.087Z,25.60
2022-09-21T06:34:04.478Z,25.60
2022-09-21T06:36:32.917Z,25.60
2022-09-21T06:39:01.029Z,25.60
2022-09-21T06:41:29.161Z,25.40
2022-09-21T06:43:57.522Z,25.20
2022-09-21T06:46:25.677Z,25.10
2022-09-21T06:48:53.770Z,25.00
2022-09-21T06:51:21.962Z,24.90
2022-09-21T06:53:50.277Z,24.80
2022-09-21T06:56:18.419Z,24.80
2022-09-21T06:58:46.558Z,24.80
2022-09-21T07:01:16.316Z,24.80
2022-09-21T07:03:44.826Z,24.90
2022-09-21T07:06:13.149Z,24.80
2022-09-21T07:11:29.601Z,24.80
2022-09-21T07:13:58.162Z,24.80
2022-09-21T07:16:26.272Z,24.80
2022-09-21T07:18:54.456Z,24.90
2022-09-21T07:21:22.693Z,24.90
2022-09-21T07:23:50.701Z,24.90
2022-09-21T07:26:18.927Z,24.90
2022-09-21T07:28:47.160Z,24.90
2022-09-21T07:31:17.372Z,24.80
2022-09-21T07:33:46.274Z,24.90
2022-09-21T07:36:14.473Z,24.90
2022-09-21T07:38:44.490Z,24.90
2022-09-21T07:41:14.781Z,24.90
2022-09-21T07:43:42.956Z,25.00
2022-09-21T07:46:13.647Z,25.00
2022-09-21T07:48:42.327Z,25.00
2022-09-21T07:51:13.336Z,25.00
2022-09-21T07:53:44.156Z,25.00
2022-09-21T07:56:15.082Z,25.00
2022-09-21T07:58:44.219Z,25.00
2022-09-21T08:01:12.406Z,25.00
2022-09-21T08:03:40.862Z,25.00
2022-09-21T08:06:09.543Z,25.00
2022-09-21T08:08:37.971Z,25.00
2022-09-21T08:11:07.867Z,25.10
2022-09-21T08:13:36.244Z,25.10
2022-09-21T08:16:04.833Z,25.10
2022-09-21T08:18:33.259Z,25.10
2022-09-21T08:21:01.742Z,25.10
2022-09-21T08:23:30.428Z,25.10
2022-09-21T08:26:03.328Z,25.20
2022-09-21T08:28:32.269Z,25.20
2022-09-21T08:31:01.842Z,25.20
2022-09-21T08:33:30.504Z,25.20
2022-09-21T08:36:00.791Z,25.30
2022-09-21T08:38:34.733Z,25.30
2022-09-21T08:41:11.268Z,25.30
2022-09-21T08:43:45.333Z,25.30
2022-09-21T08:46:26.256Z,25.30
2022-09-21T08:49:06.442Z,25.30
2022-09-21T08:51:47.512Z,25.30
2022-09-21T08:54:42.793Z,25.30
2022-09-21T08:57:15.232Z,25.30
2022-09-21T08:59:49.064Z,25.30
2022-09-21T09:02:37.486Z,25.30
2022-09-21T09:05:24.110Z,25.20
2022-09-21T09:08:17.431Z,25.20
2022-09-21T09:11:20.980Z,25.10
2022-09-21T09:13:58.813Z,25.20
2022-09-21T09:16:47.133Z,25.10
2022-09-21T09:19:34.021Z,25.20
2022-09-21T09:22:06.254Z,25.20
2022-09-21T09:24:48.123Z,25.30
2022-09-21T09:27:43.521Z,25.30
2022-09-21T09:30:18.652Z,25.30
2022-09-21T09:33:11.530Z,25.30
2022-09-21T09:35:58.742Z,25.30
2022-09-21T09:38:39.065Z,25.30
2022-09-21T09:41:43.604Z,25.40
2022-09-21T09:44:33.679Z,25.50
2022-09-21T09:47:19.205Z,25.40
2022-09-21T09:50:09.758Z,25.40
2022-09-21T09:52:38.555Z,25.50
2022-09-21T09:55:22.631Z,25.50
2022-09-21T09:57:51.262Z,25.50
2022-09-21T10:00:21.847Z,25.60
2022-09-21T10:02:56.239Z,25.60
2022-09-21T10:05:35.005Z,25.70
2022-09-21T10:08:03.466Z,25.80
2022-09-21T10:10:37.256Z,25.80
2022-09-21T10:13:24.019Z,25.90
2022-09-21T10:16:02.680Z,25.90
2022-09-21T10:18:38.864Z,26.00
2022-09-21T10:21:08.469Z,26.10
2022-09-21T10:23:38.339Z,26.10
2022-09-21T10:26:11.514Z,26.30
2022-09-21T10:29:00.039Z,26.40
2022-09-21T10:31:31.086Z,26.40
2022-09-21T10:34:07.944Z,26.30
2022-09-21T10:36:37.881Z,26.30
2022-09-21T10:39:28.499Z,26.30
2022-09-21T10:42:14.838Z,26.30
2022-09-21T10:44:46.010Z,26.30
2022-09-21T10:47:24.893Z,26.40
2022-09-21T10:49:58.797Z,26.50
2022-09-21T10:52:39.970Z,26.60
2022-09-21T10:55:16.951Z,26.70
2022-09-21T10:57:46.153Z,26.80
2022-09-21T11:00:26.765Z,26.80
2022-09-21T11:02:55.846Z,26.90
2022-09-21T11:05:32.904Z,26.80
2022-09-21T11:08:16.677Z,26.80
2022-09-21T11:11:10.007Z,26.80
2022-09-21T11:14:05.668Z,26.90
2022-09-21T11:17:01.193Z,26.90
2022-09-21T11:20:04.969Z,27.00
2022-09-21T11:22:46.006Z,27.10
2022-09-21T11:25:32.638Z,27.20
2022-09-21T11:28:14.194Z,27.20
2022-09-21T11:31:13.410Z,27.20
2022-09-21T11:34:41.613Z,27.30
2022-09-21T11:37:31.648Z,27.40
2022-09-21T11:40:06.500Z,27.40
2022-09-21T11:43:00.448Z,27.50
2022-09-21T11:46:01.129Z,27.50
2022-09-21T11:48:54.745Z,27.50
2022-09-21T11:51:41.870Z,27.60
2022-09-21T11:54:33.484Z,27.60
2022-09-21T11:57:10.020Z,27.70
2022-09-21T12:00:09.395Z,27.60
2022-09-21T12:03:08.542Z,27.50
2022-09-21T12:05:40.093Z,27.60
2022-09-21T12:08:46.979Z,27.60
2022-09-21T12:11:21.316Z,27.60
2022-09-21T12:14:16.266Z,27.80
2022-09-21T12:17:20.479Z,27.80
2022-09-21T12:19:54.986Z,28.00
2022-09-21T12:22:34.130Z,28.00
2022-09-21T12:25:22.583Z,28.10
2022-09-21T12:28:06.195Z,28.20
2022-09-21T12:30:38.472Z,28.30
2022-09-21T12:33:34.063Z,28.30
2022-09-21T12:36:28.456Z,27.90
2022-09-21T12:39:02.480Z,27.80
2022-09-21T12:41:57.038Z,28.00
2022-09-21T12:44:45.919Z,28.00
2022-09-21T12:47:15.014Z,28.20
2022-09-21T12:49:47.150Z,28.30
2022-09-21T12:52:23.374Z,28.30
2022-09-21T12:55:20.960Z,28.40
2022-09-21T12:58:17.808Z,28.50
2022-09-21T13:01:10.670Z,28.40
2022-09-21T13:03:41.869Z,28.60
2022-09-21T13:06:46.273Z,28.70
2022-09-21T13:09:18.501Z,28.30
2022-09-21T13:12:06.983Z,28.30
2022-09-21T13:14:42.294Z,28.20
2022-09-21T13:17:24.519Z,28.00
2022-09-21T13:20:00.647Z,27.90
2022-09-21T13:22:33.224Z,27.70
2022-09-21T13:25:06.586Z,27.70
2022-09-21T13:27:56.111Z,27.70
2022-09-21T13:30:39.431Z,27.70
2022-09-21T13:33:20.196Z,27.70
2022-09-21T13:35:51.903Z,27.80
2022-09-21T13:38:33.050Z,27.80
2022-09-21T13:41:35.473Z,27.90
2022-09-21T13:44:44.428Z,27.90
2022-09-21T13:47:13.041Z,27.80
2022-09-21T13:49:48.520Z,27.80
2022-09-21T13:52:16.853Z,27.90
2022-09-21T13:55:00.339Z,27.90
2022-09-21T13:57:35.077Z,27.90
2022-09-21T14:00:40.726Z,27.90
2022-09-21T14:03:23.312Z,27.90
2022-09-21T14:06:01.700Z,27.90
2022-09-21T14:08:40.073Z,28.00
2022-09-21T14:11:31.421Z,28.00
2022-09-21T14:14:18.628Z,28.00
2022-09-21T14:17:26.843Z,28.10
2022-09-21T14:19:55.259Z,28.00
2022-09-21T14:22:29.627Z,28.00
2022-09-21T14:25:23.554Z,27.90
2022-09-21T14:27:53.681Z,27.80
2022-09-21T14:30:25.211Z,27.80
2022-09-21T14:33:22.983Z,27.70
2022-09-21T14:35:53.109Z,27.70
2022-09-21T14:38:32.170Z,27.60
2022-09-21T14:41:05.378Z,27.50
2022-09-21T14:43:38.127Z,27.50
2022-09-21T14:46:28.407Z,27.50
2022-09-21T14:49:28.139Z,27.40
2022-09-21T14:52:12.982Z,27.40
2022-09-21T14:55:13.917Z,27.30
2022-09-21T14:58:05.282Z,27.30
2022-09-21T15:00:46.819Z,27.20
2022-09-21T15:03:30.404Z,27.30
2022-09-21T15:06:17.068Z,27.30
2022-09-21T15:08:56.956Z,27.50
2022-09-21T15:11:37.490Z,27.60
2022-09-21T15:14:22.483Z,27.60
2022-09-21T15:16:52.254Z,27.60
2022-09-21T15:19:26.295Z,27.60
2022-09-21T15:21:57.549Z,27.60
2022-09-21T15:24:34.334Z,27.60
2022-09-21T15:27:15.531Z,27.50
2022-09-21T15:29:54.265Z,27.40
2022-09-21T15:32:43.111Z,27.50
2022-09-21T15:35:20.261Z,27.60
2022-09-21T15:37:50.043Z,27.60
2022-09-21T15:40:23.501Z,27.70
2022-09-21T15:43:04.389Z,27.70
2022-09-21T15:45:54.838Z,27.90
2022-09-21T15:48:44.446Z,28.10
2022-09-21T15:51:26.279Z,28.20
2022-09-21T15:54:06.340Z,28.30
2022-09-21T15:56:35.504Z,28.40
2022-09-21T15:59:04.691Z,28.50
2022-09-21T16:01:38.665Z,28.50
2022-09-21T16:04:08.441Z,28.30
2022-09-21T16:06:39.539Z,28.30
2022-09-21T16:09:25.872Z,28.30
2022-09-21T16:11:55.174Z,28.80
2022-09-21T16:14:24.054Z,29.30
2022-09-21T16:17:28.840Z,29.70
2022-09-21T16:19:57.107Z,29.60
2022-09-21T16:22:44.383Z,29.00
2022-09-21T16:25:18.561Z,28.70
2022-09-21T16:27:59.521Z,28.30
2022-09-21T16:30:54.283Z,28.10
2022-09-21T16:33:38.620Z,28.10
2022-09-21T16:36:26.643Z,27.90
2022-09-21T16:38:54.969Z,27.70
2022-09-21T16:41:24.814Z,27.70
2022-09-21T16:43:53.014Z,27.40
2022-09-21T16:46:21.490Z,27.20
2022-09-21T16:48:49.752Z,27.00
2022-09-21T16:51:17.862Z,26.70
2022-09-21T16:53:46.144Z,26.60
2022-09-21T16:56:15.257Z,26.60
2022-09-21T16:58:43.925Z,26.60
2022-09-21T17:01:16.961Z,26.50
2022-09-21T17:03:45.420Z,26.60
2022-09-21T17:06:18.793Z,26.50
2022-09-21T17:08:48.233Z,26.50
2022-09-21T17:11:17.509Z,26.30
2022-09-21T17:13:46.836Z,26.30
2022-09-21T17:16:16.273Z,26.40
2022-09-21T17:18:48.345Z,26.40
2022-09-21T17:21:17.951Z,26.50
2022-09-21T17:23:46.218Z,26.50
2022-09-21T17:26:17.726Z,26.40
2022-09-21T17:28:46.240Z,26.30
2022-09-21T17:31:16.214Z,26.30
2022-09-21T17:33:44.536Z,26.30
2022-09-21T17:36:15.150Z,26.40
2022-09-21T17:38:44.115Z,26.40
2022-09-21T17:41:28.605Z,26.40
2022-09-21T17:44:15.115Z,26.40
2022-09-21T17:46:59.466Z,26.30
2022-09-21T17:49:27.838Z,26.30
2022-09-21T17:51:56.223Z,26.20
2022-09-21T17:54:24.839Z,26.20
2022-09-21T17:57:07.686Z,26.00
2022-09-21T17:59:37.639Z,25.90
2022-09-21T18:02:24.647Z,25.90
2022-09-21T18:04:58.717Z,25.70
2022-09-21T18:07:27.277Z,25.60
2022-09-21T18:09:55.862Z,25.60
2022-09-21T18:12:48.819Z,25.50
2022-09-21T18:15:40.877Z,25.50
2022-09-21T18:18:31.926Z,25.50
2022-09-21T18:21:17.355Z,25.40
2022-09-21T18:24:22.292Z,25.40
2022-09-21T18:26:51.158Z,25.40
2022-09-21T18:29:39.504Z,25.30
2022-09-21T18:32:47.250Z,25.30
2022-09-21T18:35:27.221Z,25.40
2022-09-21T18:38:17.699Z,25.30
2022-09-21T18:41:10.486Z,25.40
2022-09-21T18:44:03.327Z,25.40
2022-09-21T18:46:52.203Z,25.30
2022-09-21T18:49:40.911Z,25.30
2022-09-21T18:52:12.321Z,25.30
2022-09-21T18:54:40.927Z,25.30
2022-09-21T18:57:14.430Z,25.30
2022-09-21T18:59:43.272Z,25.30
2022-09-21T19:04:17.623Z,25.30
2022-09-21T19:06:58.031Z,25.40
2022-09-21T19:09:38.546Z,25.40
2022-09-21T19:12:19.641Z,25.40
2022-09-21T19:14:52.151Z,25.40
2022-09-21T19:17:47.286Z,25.30
2022-09-21T19:21:03.346Z,25.30
2022-09-21T19:23:49.938Z,25.30
2022-09-21T19:26:28.931Z,25.30
2022-09-21T19:29:18.637Z,25.30
2022-09-21T19:31:47.119Z,25.30
2022-09-21T19:34:18.018Z,25.30
2022-09-21T19:36:47.285Z,25.30
2022-09-21T19:39:16.532Z,25.30
2022-09-21T19:42:01.056Z,25.30
2022-09-21T19:45:14.619Z,25.30
2022-09-21T19:48:09.441Z,25.30
2022-09-21T19:50:56.558Z,25.30
2022-09-21T19:53:26.261Z,25.30
2022-09-21T19:55:57.169Z,25.30
2022-09-21T19:58:25.738Z,25.20
2022-09-21T20:00:56.303Z,25.20
2022-09-21T20:03:31.974Z,25.20
2022-09-21T20:06:10.638Z,25.20
2022-09-21T20:08:51.054Z,25.20
2022-09-21T20:11:44.930Z,25.20
2022-09-21T20:14:33.352Z,25.20
2022-09-21T20:17:04.263Z,25.20
2022-09-21T20:19:38.538Z,25.30
2022-09-21T20:22:15.097Z,25.30
2022-09-21T20:24:55.102Z,25.30
2022-09-21T20:27:39.999Z,25.30
2022-09-21T20:30:11.381Z,25.30
2022-09-21T20:32:43.357Z,25.40
2022-09-21T20:35:21.021Z,25.40
2022-09-21T20:37:49.442Z,25.40
2022-09-21T20:40:18.219Z,25.50
2022-09-21T20:42:46.477Z,25.50
2022-09-21T20:45:14.818Z,25.50
2022-09-21T20:47:43.137Z,25.50
2022-09-21T20:50:11.989Z,25.50
2022-09-21T20:52:44.426Z,25.50
2022-09-21T20:55:17.542Z,25.50
2022-09-21T20:57:45.943Z,25.50
2022-09-21T21:00:16.650Z,25.50
2022-09-21T21:02:45.110Z,25.50
2022-09-21T21:05:13.476Z,25.50
2022-09-21T21:07:42.131Z,25.50
2022-09-21T21:10:10.944Z,25.50
2022-09-21T21:12:39.136Z,25.40
2022-09-21T21:15:07.959Z,25.50
2022-09-21T21:17:36.351Z,25.50
2022-09-21T21:20:05.799Z,25.50
2022-09-21T21:22:34.193Z,25.50
2022-09-21T21:25:02.350Z,25.50
2022-09-21T21:27:30.748Z,25.50
2022-09-21T21:29:59.054Z,25.60
2022-09-21T21:32:27.810Z,25.60
2022-09-21T21:34:56.839Z,25.70
2022-09-21T21:37:26.920Z,25.70
2022-09-21T21:39:55.390Z,25.80
2022-09-21T21:42:24.377Z,25.80
2022-09-21T21:44:52.668Z,25.80
2022-09-21T21:47:38.752Z,25.70
2022-09-21T21:50:08.094Z,25.70
2022-09-21T21:52:36.261Z,25.70
2022-09-21T21:55:05.704Z,25.70
2022-09-21T21:57:33.929Z,25.70
2022-09-21T22:00:02.482Z,25.70
2022-09-21T22:02:32.594Z,25.80
2022-09-21T22:05:01.154Z,25.80
2022-09-21T22:07:29.440Z,25.80
2022-09-21T22:09:57.688Z,25.80
2022-09-21T22:12:25.969Z,25.90
2022-09-21T22:14:54.166Z,25.90
2022-09-21T22:17:22.284Z,25.90
2022-09-21T22:19:50.461Z,26.00
2022-09-21T22:22:18.640Z,25.90
2022-09-21T22:24:46.995Z,26.00
2022-09-21T22:27:15.477Z,26.00
2022-09-21T22:29:43.673Z,26.00
2022-09-21T22:32:11.869Z,26.00
2022-09-21T22:34:40.176Z,26.00
2022-09-21T22:37:08.406Z,26.00
2022-09-21T22:39:36.705Z,26.00
2022-09-21T22:42:05.122Z,26.00
2022-09-21T22:44:33.465Z,26.00
2022-09-21T22:47:01.764Z,26.00
2022-09-21T22:49:29.989Z,25.90
2022-09-21T22:51:58.495Z,25.90
2022-09-21T22:54:26.700Z,25.90
2022-09-21T22:56:54.826Z,25.90
2022-09-21T22:59:23.213Z,25.90
2022-09-21T23:01:51.477Z,25.90
2022-09-21T23:04:19.972Z,25.80
2022-09-21T23:06:48.321Z,25.80
2022-09-21T23:09:19.076Z,25.80
2022-09-21T23:11:49.726Z,25.70
2022-09-21T23:14:18.169Z,25.70
2022-09-21T23:16:47.106Z,25.70
2022-09-21T23:19:15.905Z,25.60
2022-09-21T23:21:49.389Z,25.60
2022-09-21T23:24:18.461Z,25.60
2022-09-21T23:26:47.609Z,25.50
2022-09-21T23:29:16.307Z,25.50
2022-09-21T23:31:46.270Z,25.50
2022-09-21T23:34:15.729Z,25.50
2022-09-21T23:36:45.300Z,25.50
2022-09-21T23:39:15.458Z,25.40
2022-09-21T23:41:44.473Z,25.40
2022-09-21T23:44:12.877Z,25.40
2022-09-21T23:46:41.632Z,25.30
2022-09-21T23:49:10.607Z,25.30
2022-09-21T23:51:39.843Z,25.30
2022-09-21T23:54:08.492Z,25.40
2022-09-21T23:56:36.820Z,25.40
2022-09-21T23:59:05.225Z,25.40
